Observations for VILLAFRANCA CV MIL, Italy (LIPX)

LIPX 181450Z 11007KT 080V140 CAVOK 20/06 Q1024  
LIPX 181420Z 08006KT 030V130 CAVOK 20/06 Q1024  
LIPX 181350Z 12006KT 080V150 CAVOK 21/06 Q1024  
LIPX 181320Z 11007KT 060V140 CAVOK 20/07 Q1024  
LIPX 181250Z 13005KT 080V190 CAVOK 21/06 Q1024  
LIPX 181220Z 10007KT 060V140 CAVOK 20/06 Q1024  
LIPX 181150Z 09007KT 040V130 CAVOK 20/05 Q1025  
LIPX 181120Z 11008KT 060V150 CAVOK 20/05 Q1025  
LIPX 181050Z 09007KT 040V130 CAVOK 19/05 Q1025  
LIPX 181020Z 09008KT 060V140 CAVOK 19/05 Q1025  
LIPX 180950Z 09008KT 040V140 CAVOK 19/04 Q1025  
LIPX 180920Z 09011KT CAVOK 18/04 Q1025  
LIPX 180850Z 07008KT CAVOK 18/05 Q1025  
LIPX 180820Z 09009KT 050V120 CAVOK 17/03 Q1025  
LIPX 180750Z 08008KT 050V120 CAVOK 17/05 Q1025  
LIPX 180720Z 08008KT CAVOK 16/05 Q1024  
LIPX 180650Z 07007KT 040V110 CAVOK 16/05 Q1024  
LIPX 180620Z 08006KT CAVOK 15/04 Q1024  
LIPX 180550Z 07005KT CAVOK 14/04 Q1024  
LIPX 180520Z 07006KT CAVOK 13/04 Q1024  
LIPX 180450Z 07008KT CAVOK 13/04 Q1023  
LIPX 180420Z 08005KT CAVOK 12/05 Q1023  
LIPX 180350Z 08006KT CAVOK 12/05 Q1023  
LIPX 180320Z VRB02KT CAVOK 09/06 Q1023  
LIPX 180250Z 03004KT CAVOK 09/06 Q1023  
LIPX 180220Z 36004KT CAVOK 08/05 Q1023  
LIPX 180150Z 33004KT CAVOK 09/06 Q1023  
LIPX 180120Z 32004KT CAVOK 09/06 Q1022  
LIPX 180050Z 36003KT CAVOK 09/06 Q1022  
LIPX 180020Z 08003KT CAVOK 09/06 Q1022  
LIPX 172350Z 02003KT CAVOK 10/06 Q1022  
LIPX 172320Z 35004KT CAVOK 11/06 Q1022  
LIPX 172250Z 35004KT CAVOK 12/06 Q1022  
LIPX 172220Z 34004KT CAVOK 12/07 Q1021  
LIPX 172150Z 33005KT CAVOK 12/07 Q1021  
LIPX 172120Z 34004KT CAVOK 12/07 Q1021  
LIPX 172050Z 33006KT CAVOK 14/07 Q1021  
LIPX 172020Z 35003KT CAVOK 16/06 Q1021  
LIPX 171950Z 33004KT CAVOK 14/07 Q1021  
LIPX 171920Z 33003KT CAVOK 15/07 Q1020  
LIPX 171850Z 25002KT CAVOK 16/07 Q1020  
LIPX 171820Z 19002KT CAVOK 17/07 Q1019  
LIPX 171750Z 24004KT CAVOK 19/06 Q1019  
LIPX 171720Z 15003KT 120V200 CAVOK 21/04 Q1019  
LIPX 171650Z VRB02KT CAVOK 21/04 Q1019  
LIPX 171620Z 16004KT 120V270 CAVOK 21/04 Q1019  
LIPX 171550Z 14004KT 110V190 9999 FEW070 21/04 Q1019
LIPX 171520Z 13005KT 090V180 9999 FEW050 22/05 Q1019
LIPX 171450Z VRB03KT 9999 FEW050 22/06 Q1019
LIPX 171420Z 14004KT 080V210 9999 FEW060 22/05 Q1019